Time;durP1;ratioP1;P1;durP2;ratioP2;P2;SDS_P1;SDS_P2;PMS_P1;PMS_P2;Temp;Humidity;BMP_temperature;BMP_pressure;BME280_temperature;BME280_humidity;BME280_pressure;Samples;Min_cycle;Max_cycle;Signal;HPM_P1;HPM_P2
2021/06/21 00:02:23;;;;;;;13.80;12.40;;;19.70;90.70;;;;;;5001544;28;20470;-87
2021/06/21 00:04:50;;;;;;;14.63;13.25;;;19.80;90.70;;;;;;5007086;28;20029;-87
2021/06/21 00:07:16;;;;;;;13.70;12.40;;;19.80;90.60;;;;;;5037939;28;20025;-86
2021/06/21 00:09:42;;;;;;;14.55;13.25;;;19.70;90.50;;;;;;5036846;28;20036;-88
2021/06/21 00:12:10;;;;;;;11.68;10.60;;;19.70;90.50;;;;;;5020630;28;20082;-89
2021/06/21 00:14:36;;;;;;;11.82;10.73;;;19.60;90.50;;;;;;5020577;28;20029;-89
2021/06/21 00:17:02;;;;;;;10.68;9.60;;;19.60;90.50;;;;;;5020840;28;20037;-87
2021/06/21 00:19:28;;;;;;;10.23;8.73;;;19.60;90.40;;;;;;5054678;28;20037;-89
2021/06/21 00:21:54;;;;;;;11.93;8.70;;;19.60;90.30;;;;;;5021183;28;20037;-91
2021/06/21 00:24:21;;;;;;;9.43;8.40;;;19.70;90.20;;;;;;5055459;28;20025;-90
2021/06/21 00:26:50;;;;;;;7.90;7.20;;;19.80;90.10;;;;;;5020520;28;20389;-91
2021/06/21 00:29:16;;;;;;;8.50;7.80;;;19.80;90.00;;;;;;5021410;28;20039;-88
2021/06/21 00:31:43;;;;;;;10.02;9.02;;;19.70;90.00;;;;;;5022500;28;20052;-90
2021/06/21 00:34:09;;;;;;;7.95;7.25;;;19.70;90.00;;;;;;5001334;28;20029;-88
2021/06/21 00:36:35;;;;;;;8.63;7.82;;;19.70;90.10;;;;;;5016246;28;20140;-86
2021/06/21 00:39:01;;;;;;;10.38;9.45;;;19.80;90.00;;;;;;5033528;28;20119;-87
2021/06/21 00:41:26;;;;;;;10.73;9.73;;;19.80;90.00;;;;;;5016351;28;20080;-87
2021/06/21 00:43:52;;;;;;;9.95;9.05;;;19.80;90.10;;;;;;5036237;28;20025;-90
2021/06/21 00:46:18;;;;;;;9.40;8.60;;;19.80;90.30;;;;;;5017240;28;20025;-86
2021/06/21 00:48:43;;;;;;;11.85;10.20;;;19.80;90.30;;;;;;4999245;28;20107;-87
2021/06/21 00:51:09;;;;;;;10.30;9.30;;;19.80;90.20;;;;;;4999904;28;20085;-84
2021/06/21 00:53:36;;;;;;;12.50;11.27;;;19.80;90.20;;;;;;4998909;28;20095;-84
2021/06/21 00:56:02;;;;;;;11.52;10.38;;;19.80;90.40;;;;;;5007890;28;20111;-87
2021/06/21 00:58:28;;;;;;;13.35;12.05;;;19.70;90.60;;;;;;5035312;28;20071;-87
2021/06/21 01:00:54;;;;;;;12.88;11.38;;;19.70;90.60;;;;;;5018666;28;20047;-85
2021/06/21 01:03:20;;;;;;;11.52;10.50;;;19.70;90.60;;;;;;5018821;28;20029;-84
2021/06/21 01:05:46;;;;;;;12.52;11.25;;;19.70;90.60;;;;;;5034845;28;20025;-84
2021/06/21 01:08:11;;;;;;;12.18;10.98;;;19.70;90.60;;;;;;5019604;28;20040;-87
2021/06/21 01:10:42;;;;;;;14.73;13.27;;;19.80;90.60;;;;;;5032824;28;20021;-88
2021/06/21 01:14:01;;;;;;;11.52;10.45;;;19.80;90.50;;;;;;5016560;28;20494;-88
2021/06/21 01:17:21;;;;;;;10.57;9.68;;;19.80;90.40;;;;;;4976756;28;20078;-87
2021/06/21 01:20:12;;;;;;;12.45;11.25;;;19.80;90.50;;;;;;4926019;28;20035;-91
2021/06/21 01:23:00;;;;;;;11.35;10.35;;;19.70;90.50;;;;;;5005813;28;20036;-90
2021/06/21 01:25:41;;;;;;;11.98;10.82;;;19.80;90.50;;;;;;5016497;28;20033;-89
2021/06/21 01:28:14;;;;;;;10.00;9.20;;;19.80;90.40;;;;;;5016640;28;20022;-90
2021/06/21 01:30:53;;;;;;;11.70;10.60;;;19.80;90.40;;;;;;5015770;28;20025;-91
2021/06/21 01:33:21;;;;;;;10.88;9.90;;;19.80;90.30;;;;;;5015486;28;20115;-83
2021/06/21 01:36:06;;;;;;;8.60;7.75;;;19.80;90.30;;;;;;5031687;28;20481;-83
2021/06/21 01:38:40;;;;;;;10.20;9.10;;;19.80;90.30;;;;;;5033383;28;20040;-85
2021/06/21 01:41:15;;;;;;;11.80;9.93;;;19.90;90.20;;;;;;5035355;28;20028;-83
2021/06/21 01:43:43;;;;;;;10.30;9.18;;;19.90;90.20;;;;;;5034826;28;20025;-90
2021/06/21 01:46:12;;;;;;;9.85;8.80;;;19.90;90.20;;;;;;5052527;28;20029;-84
2021/06/21 01:48:44;;;;;;;8.45;7.65;;;19.80;90.20;;;;;;5034858;28;20017;-82
2021/06/21 01:51:12;;;;;;;9.93;9.15;;;19.90;90.10;;;;;;5052520;28;20021;-83
2021/06/21 01:53:39;;;;;;;8.50;7.88;;;19.80;90.00;;;;;;5018504;28;20028;-83
2021/06/21 01:56:09;;;;;;;9.18;8.38;;;19.80;90.10;;;;;;5034509;28;20025;-82
2021/06/21 01:58:37;;;;;;;8.65;7.85;;;19.70;90.10;;;;;;5034343;28;20465;-83
2021/06/21 02:01:07;;;;;;;7.68;6.97;;;19.70;90.20;;;;;;5018172;28;20026;-84
2021/06/21 02:03:34;;;;;;;8.23;7.30;;;19.70;90.20;;;;;;5034657;28;20067;-85
2021/06/21 02:06:02;;;;;;;8.30;7.60;;;19.70;90.20;;;;;;5034364;28;20037;-85
2021/06/21 02:08:29;;;;;;;6.55;6.05;;;19.70;90.10;;;;;;5034858;28;20033;-84
2021/06/21 02:10:55;;;;;;;7.28;6.70;;;19.60;90.20;;;;;;5051894;28;20025;-87
2021/06/21 02:13:23;;;;;;;8.02;6.25;;;19.60;90.20;;;;;;5018596;28;20518;-86
2021/06/21 02:15:50;;;;;;;7.05;6.35;;;19.60;90.20;;;;;;5034517;28;20021;-85
2021/06/21 02:18:20;;;;;;;7.20;6.60;;;19.50;90.20;;;;;;5053373;28;20089;-81
2021/06/21 02:20:47;;;;;;;6.13;5.65;;;19.40;90.30;;;;;;5018899;28;20025;-86
2021/06/21 02:23:14;;;;;;;6.68;6.07;;;19.20;90.40;;;;;;5035550;28;20032;-86
2021/06/21 02:25:40;;;;;;;6.65;6.10;;;19.20;90.50;;;;;;5035456;28;20167;-87
2021/06/21 02:28:06;;;;;;;7.55;6.95;;;19.10;90.50;;;;;;5014690;28;20080;-85
2021/06/21 02:30:34;;;;;;;6.03;5.63;;;19.20;90.50;;;;;;5015486;28;20107;-88
2021/06/21 02:33:00;;;;;;;6.95;6.35;;;19.20;90.40;;;;;;5015674;28;20115;-88
2021/06/21 02:35:27;;;;;;;7.18;6.63;;;19.10;90.40;;;;;;4999572;28;20485;-88
2021/06/21 02:37:53;;;;;;;6.97;6.38;;;19.10;90.40;;;;;;5015436;28;20057;-88
2021/06/21 02:40:19;;;;;;;6.95;6.45;;;19.00;90.30;;;;;;5020881;28;20457;-87
2021/06/21 02:42:47;;;;;;;8.38;6.40;;;19.00;90.50;;;;;;5025032;28;20060;-90
2021/06/21 02:45:13;;;;;;;7.72;7.13;;;19.00;90.60;;;;;;5024867;28;20030;-88
2021/06/21 02:47:43;;;;;;;6.45;5.75;;;18.90;90.50;;;;;;5020981;28;20083;-88
2021/06/21 02:50:09;;;;;;;8.40;7.60;;;18.90;90.60;;;;;;5015892;28;20056;-89
2021/06/21 02:53:00;;;;;;;6.50;6.00;;;18.80;90.70;;;;;;5022604;28;20033;-89
2021/06/21 02:56:04;;;;;;;6.75;6.15;;;18.80;90.50;;;;;;5015744;28;20033;-88
2021/06/21 02:58:35;;;;;;;6.03;5.53;;;18.60;90.60;;;;;;5013126;28;20097;-89
2021/06/21 03:01:04;;;;;;;5.40;4.90;;;18.60;90.80;;;;;;5036169;28;20025;-90
2021/06/21 03:03:39;;;;;;;5.18;4.78;;;18.50;90.90;;;;;;5027920;28;20029;-88
2021/06/21 03:06:07;;;;;;;6.18;5.78;;;18.40;90.90;;;;;;5035051;28;20063;-90
2021/06/21 03:08:33;;;;;;;5.00;4.60;;;18.30;91.20;;;;;;5036094;28;20036;-89
2021/06/21 03:11:00;;;;;;;5.60;5.20;;;18.30;91.30;;;;;;5021701;28;20036;-87
2021/06/21 03:13:27;;;;;;;5.45;5.03;;;18.20;91.20;;;;;;5045495;28;20029;-88
2021/06/21 03:15:57;;;;;;;8.35;4.72;;;18.20;91.30;;;;;;5048721;28;20025;-87
2021/06/21 03:18:24;;;;;;;5.00;4.60;;;18.10;91.40;;;;;;5049267;28;20024;-90
2021/06/21 03:20:55;;;;;;;5.82;5.32;;;17.90;91.40;;;;;;5042821;28;20056;-88
2021/06/21 03:23:27;;;;;;;3.72;3.42;;;17.80;91.60;;;;;;5033640;28;20053;-85
2021/06/21 03:25:54;;;;;;;3.83;3.60;;;17.80;91.60;;;;;;5019089;28;20029;-90
2021/06/21 03:28:21;;;;;;;4.93;4.47;;;17.80;91.60;;;;;;5022916;28;20056;-87
2021/06/21 03:30:53;;;;;;;3.17;2.97;;;17.80;91.60;;;;;;5020110;28;20036;-84
2021/06/21 03:33:20;;;;;;;3.42;3.22;;;17.80;91.50;;;;;;5035128;28;20029;-86
2021/06/21 03:35:46;;;;;;;4.05;3.75;;;17.90;91.40;;;;;;5018516;28;20060;-84
2021/06/21 03:38:15;;;;;;;4.55;4.15;;;17.80;91.40;;;;;;5019820;28;20076;-85
2021/06/21 03:40:43;;;;;;;4.45;4.15;;;17.80;91.30;;;;;;5017234;28;20112;-85
2021/06/21 03:43:09;;;;;;;2.38;2.28;;;17.70;91.30;;;;;;5036345;28;20041;-83
2021/06/21 03:45:35;;;;;;;2.92;2.72;;;17.70;91.30;;;;;;5037052;28;20021;-84
2021/06/21 03:48:02;;;;;;;2.45;2.25;;;17.70;91.30;;;;;;5020037;28;20036;-84
2021/06/21 03:50:28;;;;;;;3.97;2.40;;;17.80;91.20;;;;;;5020806;28;20032;-82
2021/06/21 03:52:53;;;;;;;2.63;2.40;;;17.70;91.20;;;;;;5021015;28;20037;-85
2021/06/21 03:55:19;;;;;;;2.25;2.05;;;17.70;91.10;;;;;;5020765;28;20561;-85
2021/06/21 03:57:47;;;;;;;1.85;1.65;;;17.60;91.10;;;;;;5021035;28;20523;-86
2021/06/21 04:00:18;;;;;;;2.15;1.50;;;17.60;91.10;;;;;;5020555;28;20032;-85
2021/06/21 04:02:44;;;;;;;1.45;1.33;;;17.50;91.10;;;;;;5037383;28;20370;-86
2021/06/21 04:05:12;;;;;;;1.75;1.50;;;17.50;91.10;;;;;;5053235;28;20109;-87
2021/06/21 04:07:38;;;;;;;1.65;0.88;;;17.50;91.00;;;;;;5037295;28;20027;-88
2021/06/21 04:10:09;;;;;;;1.85;1.27;;;17.60;91.10;;;;;;5021291;28;20053;-89
2021/06/21 04:12:37;;;;;;;2.03;1.25;;;17.60;91.00;;;;;;5037727;28;20033;-89
2021/06/21 04:15:07;;;;;;;1.48;1.05;;;17.60;90.90;;;;;;5021370;28;20025;-90
2021/06/21 04:17:34;;;;;;;1.27;1.15;;;17.60;90.90;;;;;;5021774;28;20079;-87
2021/06/21 04:20:00;;;;;;;1.88;1.10;;;17.70;90.90;;;;;;5022015;28;20454;-88
2021/06/21 04:22:27;;;;;;;1.75;0.88;;;17.80;90.80;;;;;;5039783;28;20079;-88
2021/06/21 04:24:53;;;;;;;1.60;1.25;;;17.90;90.60;;;;;;5023075;28;20380;-88
2021/06/21 04:27:18;;;;;;;1.27;1.10;;;18.00;90.50;;;;;;5021747;28;20028;-85
2021/06/21 04:29:44;;;;;;;1.40;0.80;;;17.90;90.30;;;;;;5036870;28;20421;-85
2021/06/21 04:32:10;;;;;;;1.10;0.90;;;17.90;90.30;;;;;;5019813;28;20066;-84
2021/06/21 04:34:35;;;;;;;0.90;0.70;;;17.90;90.10;;;;;;5036620;28;20021;-83
2021/06/21 04:37:01;;;;;;;1.27;0.70;;;17.90;90.00;;;;;;5053510;28;20045;-83
2021/06/21 04:39:27;;;;;;;0.95;0.70;;;17.90;89.80;;;;;;5018830;28;20041;-82
2021/06/21 04:41:52;;;;;;;0.70;0.50;;;18.00;89.70;;;;;;5036112;28;20029;-82
2021/06/21 04:44:18;;;;;;;0.60;0.50;;;17.90;89.00;;;;;;5035102;28;20091;-83
2021/06/21 04:46:44;;;;;;;0.90;0.60;;;17.80;89.40;;;;;;5036115;28;20028;-83
2021/06/21 04:49:13;;;;;;;3.08;0.50;;;17.80;89.30;;;;;;5018592;28;20033;-84
2021/06/21 04:51:45;;;;;;;0.90;0.63;;;17.80;89.40;;;;;;5020002;28;20086;-84
2021/06/21 04:54:11;;;;;;;2.67;0.50;;;17.80;88.80;;;;;;5035436;28;20021;-84
2021/06/21 04:56:38;;;;;;;0.85;0.57;;;17.70;88.70;;;;;;5019089;28;20078;-83
2021/06/21 04:59:05;;;;;;;0.80;0.60;;;17.60;88.80;;;;;;5026843;28;20025;-85
2021/06/21 05:01:31;;;;;;;1.70;0.57;;;17.70;89.00;;;;;;4999539;28;20544;-81
2021/06/21 05:04:00;;;;;;;0.80;0.57;;;17.80;88.80;;;;;;4999457;28;20033;-84
2021/06/21 05:06:29;;;;;;;1.67;0.50;;;17.80;88.80;;;;;;4999266;28;20045;-85
2021/06/21 05:08:56;;;;;;;0.80;0.57;;;17.70;88.70;;;;;;4999967;28;20584;-86
2021/06/21 05:11:21;;;;;;;0.90;0.60;;;17.70;88.80;;;;;;5015975;28;20028;-85
2021/06/21 05:13:48;;;;;;;1.60;0.50;;;17.60;88.50;;;;;;4999838;28;20033;-88
2021/06/21 05:16:14;;;;;;;1.48;0.40;;;17.50;88.70;;;;;;5032355;28;20032;-84
2021/06/21 05:18:40;;;;;;;1.63;0.43;;;17.40;89.20;;;;;;4999869;28;20029;-86
2021/06/21 05:21:06;;;;;;;0.65;0.40;;;17.40;89.10;;;;;;5032506;28;20041;-86
2021/06/21 05:23:32;;;;;;;0.50;0.30;;;17.50;89.10;;;;;;5015860;28;20498;-87
2021/06/21 05:25:57;;;;;;;0.57;0.30;;;17.50;88.80;;;;;;5032762;28;20026;-86
2021/06/21 05:28:23;;;;;;;0.40;0.38;;;17.60;88.60;;;;;;5032006;28;20024;-87
2021/06/21 05:30:49;;;;;;;0.60;0.30;;;17.60;88.30;;;;;;4999652;28;20029;-86
2021/06/21 05:33:14;;;;;;;0.32;0.22;;;17.70;88.40;;;;;;5015402;28;20068;-86
2021/06/21 05:35:41;;;;;;;0.40;0.28;;;17.70;87.70;;;;;;5017292;28;20058;-85
2021/06/21 05:38:07;;;;;;;1.38;0.20;;;17.50;87.90;;;;;;5017133;28;20040;-87
2021/06/21 05:40:33;;;;;;;0.20;0.20;;;17.30;88.30;;;;;;5031797;28;20025;-84
2021/06/21 05:42:59;;;;;;;0.20;0.20;;;17.30;88.50;;;;;;5015641;28;20029;-84
2021/06/21 05:45:24;;;;;;;0.30;0.20;;;17.30;88.60;;;;;;5014948;28;20038;-83
2021/06/21 05:47:50;;;;;;;0.20;0.10;;;17.40;88.40;;;;;;5015454;28;20039;-83
2021/06/21 05:50:16;;;;;;;0.20;0.20;;;17.50;88.10;;;;;;5030928;28;20026;-83
2021/06/21 05:52:42;;;;;;;1.55;0.20;;;17.50;87.80;;;;;;5015081;28;20029;-83
2021/06/21 05:55:09;;;;;;;0.20;0.10;;;17.60;87.60;;;;;;5014818;28;20026;-83
2021/06/21 05:57:35;;;;;;;0.30;0.20;;;17.60;87.40;;;;;;5014496;28;20024;-83
2021/06/21 06:00:00;;;;;;;0.40;0.20;;;17.60;87.10;;;;;;5032554;28;20493;-83
2021/06/21 06:02:26;;;;;;;0.77;0.20;;;17.60;87.40;;;;;;5031241;28;20112;-81
2021/06/21 06:04:52;;;;;;;0.15;0.13;;;17.50;87.00;;;;;;5031415;28;20474;-83
2021/06/21 06:07:18;;;;;;;0.45;0.20;;;17.50;87.30;;;;;;5029726;28;20146;-84
2021/06/21 06:09:44;;;;;;;0.52;0.20;;;17.40;87.20;;;;;;4998536;28;20033;-82
2021/06/21 06:12:12;;;;;;;0.82;0.20;;;17.50;87.40;;;;;;4998219;28;20480;-83
2021/06/21 06:14:38;;;;;;;0.30;0.10;;;17.50;87.50;;;;;;4998406;28;20284;-83
2021/06/21 06:17:04;;;;;;;0.20;0.20;;;17.60;87.20;;;;;;4998579;28;20549;-84
2021/06/21 06:19:30;;;;;;;0.60;0.20;;;17.60;87.00;;;;;;5033761;28;20043;-83
2021/06/21 06:21:56;;;;;;;1.15;0.10;;;17.60;86.80;;;;;;5013507;28;20466;-83
2021/06/21 06:24:21;;;;;;;0.40;0.10;;;17.60;86.80;;;;;;4998743;28;20041;-83
2021/06/21 06:26:47;;;;;;;0.88;0.20;;;17.60;86.50;;;;;;4997836;28;20096;-80
2021/06/21 06:29:16;;;;;;;0.20;0.10;;;17.50;86.50;;;;;;4997787;28;20032;-80
2021/06/21 06:31:44;;;;;;;0.45;0.20;;;17.50;86.70;;;;;;5013486;28;20109;-79
2021/06/21 06:34:11;;;;;;;0.32;0.20;;;17.60;86.70;;;;;;5014633;28;20026;-80
2021/06/21 06:36:36;;;;;;;2.15;0.20;;;17.50;86.20;;;;;;5032775;28;20045;-80
2021/06/21 06:39:04;;;;;;;0.40;0.10;;;17.50;86.70;;;;;;5050101;28;20033;-79
2021/06/21 06:41:30;;;;;;;0.90;0.30;;;17.50;86.80;;;;;;5037693;28;20462;-80
2021/06/21 06:43:56;;;;;;;0.50;0.30;;;17.50;86.70;;;;;;5017503;28;20043;-79
2021/06/21 06:46:21;;;;;;;1.88;0.40;;;17.60;86.70;;;;;;5036383;28;20488;-82
2021/06/21 06:48:47;;;;;;;0.60;0.30;;;17.60;86.50;;;;;;5016857;28;20109;-80
2021/06/21 06:51:13;;;;;;;2.15;0.25;;;17.50;86.70;;;;;;5017783;28;20390;-82
2021/06/21 06:53:49;;;;;;;0.50;0.30;;;17.40;86.90;;;;;;5016683;28;20029;-79
2021/06/21 06:59:00;;;;;;;0.63;0.30;;;17.40;86.90;;;;;;5035729;28;20561;-81
2021/06/21 07:01:25;;;;;;;0.80;0.30;;;17.50;86.80;;;;;;5016820;28;20116;-80
2021/06/21 07:03:52;;;;;;;0.20;0.20;;;17.50;86.60;;;;;;5043516;28;20095;-80
2021/06/21 07:06:19;;;;;;;1.30;0.50;;;17.40;86.70;;;;;;5018685;28;20033;-80
2021/06/21 07:08:45;;;;;;;1.65;0.82;;;17.40;86.90;;;;;;5040964;28;20718;-80
2021/06/21 07:11:13;;;;;;;1.92;1.58;;;17.40;86.80;;;;;;5017132;28;20043;-80
2021/06/21 07:13:39;;;;;;;2.25;2.05;;;17.50;86.80;;;;;;5025474;28;20117;-81
2021/06/21 07:16:05;;;;;;;2.03;1.60;;;17.60;86.60;;;;;;5036859;28;20063;-81
2021/06/21 07:18:30;;;;;;;1.58;1.10;;;17.60;86.40;;;;;;5055721;28;20040;-82
2021/06/21 07:20:56;;;;;;;5.43;2.85;;;17.60;86.30;;;;;;5020497;28;20078;-82
2021/06/21 07:23:22;;;;;;;5.78;3.78;;;17.60;86.30;;;;;;5004266;28;20389;-81
2021/06/21 07:25:48;;;;;;;6.43;4.50;;;17.70;86.20;;;;;;5021657;28;20088;-81
2021/06/21 07:28:16;;;;;;;5.95;4.88;;;17.70;86.00;;;;;;5024524;28;20112;-82
2021/06/21 07:30:43;;;;;;;4.65;3.33;;;17.70;85.90;;;;;;5010216;28;20450;-82
2021/06/21 07:33:08;;;;;;;2.55;2.33;;;17.70;85.70;;;;;;5022299;28;20466;-82
2021/06/21 07:35:34;;;;;;;3.92;3.63;;;17.70;85.80;;;;;;5038241;28;20041;-83
2021/06/21 07:38:00;;;;;;;5.65;5.10;;;17.70;85.90;;;;;;5044881;28;20378;-81
2021/06/21 07:40:26;;;;;;;5.60;5.10;;;17.60;85.90;;;;;;5020177;28;20156;-81
2021/06/21 07:42:51;;;;;;;4.93;4.43;;;17.70;86.00;;;;;;5012571;28;20037;-80
2021/06/21 07:45:17;;;;;;;3.92;3.58;;;17.70;86.30;;;;;;5033763;28;20033;-81
2021/06/21 07:47:43;;;;;;;4.90;4.40;;;17.70;85.80;;;;;;5043632;28;20083;-79
2021/06/21 07:50:09;;;;;;;5.03;4.38;;;17.60;85.70;;;;;;5038960;28;20039;-79
2021/06/21 07:52:35;;;;;;;5.40;4.28;;;17.60;85.70;;;;;;5073081;28;20036;-78
2021/06/21 07:55:00;;;;;;;6.28;5.57;;;17.60;86.00;;;;;;5052602;28;20132;-79
2021/06/21 07:57:28;;;;;;;3.75;3.40;;;17.60;85.90;;;;;;5021184;28;20037;-79
2021/06/21 07:59:54;;;;;;;8.38;7.43;;;17.60;85.90;;;;;;5030999;28;20033;-80
2021/06/21 08:02:20;;;;;;;9.98;7.97;;;17.60;86.00;;;;;;5016674;28;20034;-79
2021/06/21 08:04:47;;;;;;;5.40;4.68;;;17.70;86.30;;;;;;5061193;28;20094;-81
2021/06/21 08:07:14;;;;;;;2.95;2.60;;;17.70;86.00;;;;;;5036528;28;20080;-79
2021/06/21 08:09:40;;;;;;;5.20;4.35;;;17.60;85.90;;;;;;5035565;28;20132;-79
2021/06/21 08:12:06;;;;;;;5.15;4.65;;;17.50;86.10;;;;;;5051594;28;20074;-79
2021/06/21 08:14:32;;;;;;;3.42;2.88;;;17.50;86.30;;;;;;5024867;28;20029;-80
2021/06/21 08:16:58;;;;;;;7.72;5.93;;;17.50;86.00;;;;;;5038431;28;20056;-79
2021/06/21 08:19:23;;;;;;;8.68;6.97;;;17.50;86.00;;;;;;5055142;28;20609;-80
2021/06/21 08:21:49;;;;;;;6.40;2.97;;;17.60;86.10;;;;;;5038545;28;20033;-80
2021/06/21 08:24:15;;;;;;;3.65;3.03;;;17.60;85.60;;;;;;5039160;28;20472;-80
2021/06/21 08:26:41;;;;;;;5.38;4.82;;;17.60;85.60;;;;;;5055680;28;20029;-80
2021/06/21 08:29:06;;;;;;;3.60;3.30;;;17.50;85.60;;;;;;5019262;28;20465;-80
2021/06/21 08:31:32;;;;;;;3.08;2.05;;;17.50;85.70;;;;;;5052512;28;20033;-80
2021/06/21 08:33:58;;;;;;;5.40;4.43;;;17.40;85.80;;;;;;5034642;28;20057;-80
2021/06/21 08:36:24;;;;;;;3.00;2.55;;;17.40;86.20;;;;;;5038565;28;20535;-81
2021/06/21 08:38:50;;;;;;;3.50;2.60;;;17.40;86.20;;;;;;5050932;28;20037;-80
2021/06/21 08:41:16;;;;;;;4.70;3.38;;;17.40;86.20;;;;;;5035891;28;20025;-79
2021/06/21 08:43:43;;;;;;;3.88;2.38;;;17.40;86.20;;;;;;5030246;28;20123;-81
2021/06/21 08:46:09;;;;;;;4.22;3.00;;;17.50;86.10;;;;;;5052242;28;20032;-80
2021/06/21 08:48:40;;;;;;;4.47;2.55;;;17.70;85.90;;;;;;5052680;28;20108;-80
2021/06/21 08:51:06;;;;;;;4.97;3.78;;;17.70;85.60;;;;;;5051927;28;20465;-80
2021/06/21 08:53:32;;;;;;;3.15;2.55;;;17.80;85.20;;;;;;5052395;28;20064;-80
2021/06/21 08:55:58;;;;;;;4.13;3.63;;;17.80;85.20;;;;;;5053615;28;20484;-79
2021/06/21 08:58:23;;;;;;;2.33;2.13;;;17.80;85.20;;;;;;5055485;28;20037;-81
2021/06/21 09:00:49;;;;;;;2.95;2.72;;;17.90;85.10;;;;;;5054923;28;20029;-79
2021/06/21 09:03:16;;;;;;;3.53;3.13;;;18.00;85.10;;;;;;5054207;28;20037;-81
2021/06/21 09:05:42;;;;;;;3.08;2.85;;;18.10;84.80;;;;;;5052191;28;20029;-81
2021/06/21 09:08:08;;;;;;;4.95;2.25;;;18.10;84.60;;;;;;5034827;28;20495;-81
2021/06/21 09:10:37;;;;;;;2.97;2.78;;;18.10;84.40;;;;;;5052206;28;20037;-80
2021/06/21 09:13:11;;;;;;;3.80;2.90;;;18.10;84.40;;;;;;5051580;28;20021;-81
2021/06/21 09:15:49;;;;;;;3.30;2.50;;;18.10;84.40;;;;;;5052570;28;20021;-82
2021/06/21 09:18:33;;;;;;;2.67;2.00;;;18.00;84.50;;;;;;5053580;28;20083;-82
2021/06/21 09:21:18;;;;;;;3.90;3.58;;;18.10;84.60;;;;;;5051662;28;20048;-82
2021/06/21 09:23:43;;;;;;;2.47;2.13;;;18.10;84.60;;;;;;5053291;28;20032;-82
2021/06/21 09:26:28;;;;;;;2.20;2.00;;;18.10;84.50;;;;;;5053776;28;20029;-82
2021/06/21 09:28:54;;;;;;;3.05;1.77;;;18.10;84.40;;;;;;5053056;28;20040;-83
2021/06/21 09:31:21;;;;;;;3.58;2.38;;;18.20;84.30;;;;;;5052228;28;20159;-82
2021/06/21 09:33:47;;;;;;;2.25;1.85;;;18.30;84.20;;;;;;5052541;28;20036;-81
2021/06/21 09:36:25;;;;;;;2.58;1.45;;;18.40;83.80;;;;;;5039054;28;20045;-82
2021/06/21 09:39:23;;;;;;;3.30;2.30;;;18.50;83.40;;;;;;5066999;28;20029;-82
2021/06/21 09:42:10;;;;;;;2.97;1.60;;;18.60;83.30;;;;;;5052656;28;20052;-81
2021/06/21 09:44:45;;;;;;;3.42;1.50;;;18.60;83.00;;;;;;5046636;28;20427;-81
2021/06/21 09:47:37;;;;;;;1.92;1.42;;;18.60;83.10;;;;;;5061784;28;20100;-82
2021/06/21 09:50:17;;;;;;;1.80;1.10;;;18.60;83.10;;;;;;5056400;28;20017;-82
2021/06/21 09:52:58;;;;;;;1.50;1.02;;;18.70;83.00;;;;;;5020581;28;20121;-82
2021/06/21 09:55:29;;;;;;;1.40;1.30;;;18.80;82.20;;;;;;5017888;28;20041;-80
2021/06/21 09:58:02;;;;;;;1.30;1.20;;;18.70;82.30;;;;;;5039009;28;20389;-80
2021/06/21 10:00:29;;;;;;;2.30;1.15;;;18.90;83.10;;;;;;5013147;28;20026;-82
2021/06/21 10:03:14;;;;;;;1.23;1.02;;;19.00;81.00;;;;;;5029419;28;20104;-82
2021/06/21 10:06:02;;;;;;;2.60;0.73;;;19.50;83.10;;;;;;5013702;28;20029;-81
2021/06/21 10:08:46;;;;;;;0.70;0.60;;;20.00;81.50;;;;;;5012692;28;20056;-82
2021/06/21 10:11:33;;;;;;;0.90;0.60;;;20.20;80.10;;;;;;5029562;28;20028;-83
2021/06/21 10:14:02;;;;;;;0.75;0.52;;;20.40;80.00;;;;;;5031997;28;20033;-83
2021/06/21 10:16:29;;;;;;;0.80;0.60;;;20.80;79.00;;;;;;5050063;28;20021;-81
2021/06/21 10:18:55;;;;;;;0.90;0.70;;;21.00;77.90;;;;;;5016552;28;20065;-83
2021/06/21 10:21:23;;;;;;;1.40;0.60;;;21.00;77.90;;;;;;5016224;28;20029;-82
2021/06/21 10:23:49;;;;;;;0.50;0.40;;;20.90;78.20;;;;;;5031475;28;20090;-83
2021/06/21 10:26:15;;;;;;;0.77;0.70;;;20.80;77.50;;;;;;5016988;28;20461;-80
2021/06/21 10:28:41;;;;;;;0.63;0.50;;;20.80;77.30;;;;;;5033131;28;20082;-82
2021/06/21 10:31:07;;;;;;;0.73;0.50;;;20.80;77.40;;;;;;5032110;28;20033;-81
2021/06/21 10:33:34;;;;;;;1.13;0.50;;;20.80;77.00;;;;;;5051201;28;20029;-82
2021/06/21 10:36:06;;;;;;;0.63;0.30;;;20.50;76.70;;;;;;5013530;28;20049;-83
2021/06/21 10:38:33;;;;;;;0.50;0.40;;;20.30;76.90;;;;;;5029558;28;20389;-82
2021/06/21 10:41:03;;;;;;;0.82;0.40;;;20.20;77.00;;;;;;5029248;28;20025;-82
2021/06/21 10:43:44;;;;;;;0.60;0.30;;;20.00;77.50;;;;;;5031376;28;20047;-83
2021/06/21 10:46:24;;;;;;;0.40;0.30;;;19.90;77.80;;;;;;5029617;28;20080;-83
2021/06/21 10:49:06;;;;;;;1.88;0.40;;;19.80;77.80;;;;;;5012839;28;20022;-84
2021/06/21 10:51:42;;;;;;;2.97;0.50;;;19.70;78.10;;;;;;5031274;28;20026;-83
2021/06/21 10:54:26;;;;;;;0.70;0.40;;;19.60;78.30;;;;;;5031671;28;20029;-83
2021/06/21 10:56:59;;;;;;;0.50;0.40;;;19.50;78.30;;;;;;5050088;28;20051;-83
2021/06/21 10:59:27;;;;;;;0.52;0.30;;;19.40;78.60;;;;;;5033023;28;20414;-83
2021/06/21 11:01:54;;;;;;;0.38;0.30;;;19.40;78.90;;;;;;5039681;28;20469;-84
2021/06/21 11:04:32;;;;;;;0.77;0.30;;;19.40;78.90;;;;;;5031617;28;20021;-83
2021/06/21 11:07:11;;;;;;;0.70;0.40;;;19.30;78.90;;;;;;5043450;28;20040;-81
2021/06/21 11:09:46;;;;;;;0.40;0.40;;;19.20;78.90;;;;;;5027273;28;20040;-81
2021/06/21 11:12:20;;;;;;;0.93;0.40;;;19.10;79.00;;;;;;5040179;28;20765;-83
2021/06/21 11:15:10;;;;;;;0.98;0.60;;;19.20;79.10;;;;;;5046465;28;20489;-85
2021/06/21 11:17:42;;;;;;;0.65;0.50;;;19.30;78.90;;;;;;5038036;28;20369;-79
2021/06/21 11:20:30;;;;;;;0.60;0.50;;;19.30;79.00;;;;;;5044455;28;20033;-81
2021/06/21 11:22:59;;;;;;;0.73;0.50;;;19.40;78.80;;;;;;5035679;28;20124;-84
2021/06/21 11:25:30;;;;;;;2.42;1.23;;;19.50;78.60;;;;;;5050170;28;20037;-83
2021/06/21 11:27:56;;;;;;;2.97;2.60;;;19.50;78.40;;;;;;5035113;28;20021;-82
2021/06/21 11:30:22;;;;;;;5.63;5.13;;;19.60;78.60;;;;;;5032918;28;20052;-83
2021/06/21 11:32:56;;;;;;;5.40;4.90;;;19.60;78.50;;;;;;5052682;28;20477;-82
2021/06/21 11:36:01;;;;;;;2.70;2.42;;;19.60;78.30;;;;;;5059476;28;20477;-82
2021/06/21 11:38:38;;;;;;;2.40;2.20;;;19.60;78.00;;;;;;5049390;28;20039;-83
2021/06/21 11:41:26;;;;;;;1.65;1.30;;;19.50;78.10;;;;;;5054132;28;20082;-83
2021/06/21 11:43:57;;;;;;;2.70;1.40;;;19.40;78.20;;;;;;5030459;28;20032;-78
2021/06/21 11:46:42;;;;;;;3.15;1.60;;;19.30;78.50;;;;;;5035365;28;20067;-80
2021/06/21 11:49:22;;;;;;;1.75;1.65;;;19.40;78.80;;;;;;5032080;28;20047;-82
2021/06/21 11:52:01;;;;;;;3.63;3.33;;;19.40;78.50;;;;;;5031328;28;20025;-84
2021/06/21 11:54:28;;;;;;;3.92;3.50;;;19.50;78.30;;;;;;5033930;28;20060;-83
2021/06/21 11:56:57;;;;;;;3.80;3.50;;;19.80;77.80;;;;;;5018210;28;20119;-82
2021/06/21 11:59:37;;;;;;;3.75;3.33;;;20.00;76.60;;;;;;5014592;28;20030;-82
2021/06/21 12:02:06;;;;;;;2.53;2.30;;;20.30;76.20;;;;;;5033247;28;20072;-82
2021/06/21 12:04:31;;;;;;;2.28;2.08;;;20.50;75.80;;;;;;5015999;28;20141;-81
2021/06/21 12:06:58;;;;;;;1.23;1.13;;;20.50;75.00;;;;;;5016598;28;20124;-83
2021/06/21 12:09:24;;;;;;;2.05;1.30;;;20.60;75.00;;;;;;5035579;28;20024;-83
2021/06/21 12:11:53;;;;;;;1.95;1.65;;;20.70;75.00;;;;;;5034159;28;20033;-84
2021/06/21 12:14:24;;;;;;;2.53;2.33;;;20.80;74.90;;;;;;5045345;28;20115;-85
2021/06/21 12:16:51;;;;;;;3.60;3.30;;;20.80;74.80;;;;;;5023232;28;20056;-83
2021/06/21 12:19:23;;;;;;;5.57;4.95;;;20.80;74.30;;;;;;5039057;28;20466;-86
2021/06/21 12:21:49;;;;;;;3.40;2.33;;;20.90;74.30;;;;;;5020954;28;20033;-85
2021/06/21 12:24:27;;;;;;;1.88;1.77;;;20.90;74.00;;;;;;5034592;28;20033;-82
2021/06/21 12:26:59;;;;;;;2.67;2.47;;;20.90;73.80;;;;;;5044636;28;20025;-87
2021/06/21 12:29:26;;;;;;;3.83;2.80;;;21.00;73.20;;;;;;5053499;28;20040;-84
2021/06/21 12:32:07;;;;;;;3.47;3.17;;;21.20;73.00;;;;;;5054649;28;20074;-86
2021/06/21 12:34:53;;;;;;;1.75;1.40;;;21.60;72.60;;;;;;5038331;28;20090;-85
2021/06/21 12:37:28;;;;;;;2.92;2.22;;;21.80;71.50;;;;;;5057117;28;20057;-85
2021/06/21 12:40:12;;;;;;;0.90;0.70;;;22.00;71.50;;;;;;5035757;28;20481;-83
2021/06/21 12:42:39;;;;;;;1.50;1.00;;;21.90;70.10;;;;;;5036116;28;20028;-83
2021/06/21 12:45:09;;;;;;;1.63;0.80;;;21.70;71.00;;;;;;5016229;28;20049;-82
2021/06/21 12:47:34;;;;;;;1.67;1.05;;;21.40;71.40;;;;;;5033070;28;20136;-82
2021/06/21 12:50:06;;;;;;;0.90;0.80;;;21.30;71.60;;;;;;5027321;28;20116;-83
2021/06/21 12:52:33;;;;;;;1.40;1.00;;;21.20;72.10;;;;;;5033557;28;20029;-83
2021/06/21 12:55:05;;;;;;;1.60;1.48;;;21.20;72.40;;;;;;5016534;28;20053;-81
2021/06/21 12:57:56;;;;;;;1.38;1.05;;;21.30;72.30;;;;;;5046192;28;20665;-83
2021/06/21 13:00:48;;;;;;;1.50;1.40;;;21.30;72.40;;;;;;5035131;28;20013;-81
2021/06/21 13:03:23;;;;;;;2.90;1.58;;;21.20;72.60;;;;;;5015201;28;20730;-82